sensor_id;sensor_type;location;lat;lon;timestamp;P1;durP1;ratioP1;P2;durP2;ratioP2
9224;SDS011;4647;48.072;11.616;2024-02-23T00:00:27;0.73;;;0.53;;
9224;SDS011;4647;48.072;11.616;2024-02-23T00:02:56;3.90;;;0.70;;
9224;SDS011;4647;48.072;11.616;2024-02-23T00:05:24;3.67;;;0.80;;
9224;SDS011;4647;48.072;11.616;2024-02-23T00:07:53;0.63;;;0.60;;
9224;SDS011;4647;48.072;11.616;2024-02-23T00:10:21;0.70;;;0.70;;
9224;SDS011;4647;48.072;11.616;2024-02-23T00:12:50;0.67;;;0.57;;
9224;SDS011;4647;48.072;11.616;2024-02-23T00:15:19;0.47;;;0.40;;
9224;SDS011;4647;48.072;11.616;2024-02-23T00:17:52;0.47;;;0.47;;
9224;SDS011;4647;48.072;11.616;2024-02-23T00:20:20;1.80;;;0.43;;
9224;SDS011;4647;48.072;11.616;2024-02-23T00:22:48;0.50;;;0.40;;
9224;SDS011;4647;48.072;11.616;2024-02-23T00:25:17;0.13;;;0.13;;
9224;SDS011;4647;48.072;11.616;2024-02-23T00:27:45;2.03;;;0.43;;
9224;SDS011;4647;48.072;11.616;2024-02-23T00:30:14;0.63;;;0.50;;
9224;SDS011;4647;48.072;11.616;2024-02-23T00:32:42;0.47;;;0.47;;
9224;SDS011;4647;48.072;11.616;2024-02-23T00:35:14;0.50;;;0.30;;
9224;SDS011;4647;48.072;11.616;2024-02-23T00:37:42;0.33;;;0.33;;
9224;SDS011;4647;48.072;11.616;2024-02-23T00:40:11;0.40;;;0.30;;
9224;SDS011;4647;48.072;11.616;2024-02-23T00:42:40;0.40;;;0.40;;
9224;SDS011;4647;48.072;11.616;2024-02-23T00:45:09;0.33;;;0.33;;
9224;SDS011;4647;48.072;11.616;2024-02-23T00:47:37;0.40;;;0.40;;
9224;SDS011;4647;48.072;11.616;2024-02-23T00:50:06;0.33;;;0.33;;
9224;SDS011;4647;48.072;11.616;2024-02-23T00:52:38;0.47;;;0.30;;
9224;SDS011;4647;48.072;11.616;2024-02-23T00:55:07;0.30;;;0.30;;
9224;SDS011;4647;48.072;11.616;2024-02-23T00:57:36;0.40;;;0.40;;
9224;SDS011;4647;48.072;11.616;2024-02-23T01:00:06;0.50;;;0.50;;
9224;SDS011;4647;48.072;11.616;2024-02-23T01:02:37;0.30;;;0.30;;
9224;SDS011;4647;48.072;11.616;2024-02-23T01:05:06;0.70;;;0.40;;
9224;SDS011;4647;48.072;11.616;2024-02-23T01:07:38;0.70;;;0.47;;
9224;SDS011;4647;48.072;11.616;2024-02-23T01:10:07;0.30;;;0.30;;
9224;SDS011;4647;48.072;11.616;2024-02-23T01:12:35;0.30;;;0.30;;
9224;SDS011;4647;48.072;11.616;2024-02-23T01:15:04;0.40;;;0.40;;
9224;SDS011;4647;48.072;11.616;2024-02-23T01:17:33;0.67;;;0.40;;
9224;SDS011;4647;48.072;11.616;2024-02-23T01:20:03;0.30;;;0.30;;
9224;SDS011;4647;48.072;11.616;2024-02-23T01:22:32;0.30;;;0.30;;
9224;SDS011;4647;48.072;11.616;2024-02-23T01:25:03;0.77;;;0.23;;
9224;SDS011;4647;48.072;11.616;2024-02-23T01:27:32;0.30;;;0.30;;
9224;SDS011;4647;48.072;11.616;2024-02-23T01:30:00;0.20;;;0.20;;
9224;SDS011;4647;48.072;11.616;2024-02-23T01:32:29;0.37;;;0.37;;
9224;SDS011;4647;48.072;11.616;2024-02-23T01:34:57;0.40;;;0.40;;
9224;SDS011;4647;48.072;11.616;2024-02-23T01:37:26;1.63;;;0.30;;
9224;SDS011;4647;48.072;11.616;2024-02-23T01:39:54;0.40;;;0.40;;
9224;SDS011;4647;48.072;11.616;2024-02-23T01:42:25;0.30;;;0.30;;
9224;SDS011;4647;48.072;11.616;2024-02-23T01:44:53;0.50;;;0.50;;
9224;SDS011;4647;48.072;11.616;2024-02-23T01:47:22;0.40;;;0.40;;
9224;SDS011;4647;48.072;11.616;2024-02-23T01:49:51;0.60;;;0.40;;
9224;SDS011;4647;48.072;11.616;2024-02-23T01:52:20;0.60;;;0.60;;
9224;SDS011;4647;48.072;11.616;2024-02-23T01:54:49;0.40;;;0.37;;
9224;SDS011;4647;48.072;11.616;2024-02-23T01:57:17;0.70;;;0.70;;
9224;SDS011;4647;48.072;11.616;2024-02-23T01:59:49;0.73;;;0.40;;
9224;SDS011;4647;48.072;11.616;2024-02-23T02:02:18;1.70;;;0.50;;
9224;SDS011;4647;48.072;11.616;2024-02-23T02:04:46;0.60;;;0.60;;
9224;SDS011;4647;48.072;11.616;2024-02-23T02:07:15;0.60;;;0.60;;
9224;SDS011;4647;48.072;11.616;2024-02-23T02:09:43;0.50;;;0.50;;
9224;SDS011;4647;48.072;11.616;2024-02-23T02:12:14;0.50;;;0.40;;
9224;SDS011;4647;48.072;11.616;2024-02-23T02:14:42;0.30;;;0.30;;
9224;SDS011;4647;48.072;11.616;2024-02-23T02:17:13;0.47;;;0.47;;
9224;SDS011;4647;48.072;11.616;2024-02-23T02:19:45;0.30;;;0.30;;
9224;SDS011;4647;48.072;11.616;2024-02-23T02:22:14;0.40;;;0.30;;
9224;SDS011;4647;48.072;11.616;2024-02-23T02:24:42;0.90;;;0.40;;
9224;SDS011;4647;48.072;11.616;2024-02-23T02:27:11;0.83;;;0.30;;
9224;SDS011;4647;48.072;11.616;2024-02-23T02:29:40;0.30;;;0.30;;
9224;SDS011;4647;48.072;11.616;2024-02-23T02:32:08;1.33;;;0.30;;
9224;SDS011;4647;48.072;11.616;2024-02-23T02:34:39;0.47;;;0.40;;
9224;SDS011;4647;48.072;11.616;2024-02-23T02:37:08;0.37;;;0.37;;
9224;SDS011;4647;48.072;11.616;2024-02-23T02:39:36;0.30;;;0.30;;
9224;SDS011;4647;48.072;11.616;2024-02-23T02:42:04;0.23;;;0.20;;
9224;SDS011;4647;48.072;11.616;2024-02-23T02:44:33;0.30;;;0.30;;
9224;SDS011;4647;48.072;11.616;2024-02-23T02:47:02;0.40;;;0.30;;
9224;SDS011;4647;48.072;11.616;2024-02-23T02:49:30;0.27;;;0.27;;
9224;SDS011;4647;48.072;11.616;2024-02-23T02:52:01;0.83;;;0.50;;
9224;SDS011;4647;48.072;11.616;2024-02-23T02:54:30;0.50;;;0.30;;
9224;SDS011;4647;48.072;11.616;2024-02-23T02:56:58;0.30;;;0.30;;
9224;SDS011;4647;48.072;11.616;2024-02-23T02:59:26;0.30;;;0.30;;
9224;SDS011;4647;48.072;11.616;2024-02-23T03:01:56;0.40;;;0.30;;
9224;SDS011;4647;48.072;11.616;2024-02-23T03:04:25;1.80;;;0.30;;
9224;SDS011;4647;48.072;11.616;2024-02-23T03:06:53;0.63;;;0.40;;
9224;SDS011;4647;48.072;11.616;2024-02-23T03:09:24;0.50;;;0.50;;
9224;SDS011;4647;48.072;11.616;2024-02-23T03:11:52;0.40;;;0.40;;
9224;SDS011;4647;48.072;11.616;2024-02-23T03:14:21;0.40;;;0.40;;
9224;SDS011;4647;48.072;11.616;2024-02-23T03:16:50;0.53;;;0.40;;
9224;SDS011;4647;48.072;11.616;2024-02-23T03:19:18;0.43;;;0.30;;
9224;SDS011;4647;48.072;11.616;2024-02-23T03:21:48;0.57;;;0.57;;
9224;SDS011;4647;48.072;11.616;2024-02-23T03:24:17;0.93;;;0.43;;
9224;SDS011;4647;48.072;11.616;2024-02-23T03:26:48;2.00;;;0.60;;
9224;SDS011;4647;48.072;11.616;2024-02-23T03:29:16;0.33;;;0.33;;
9224;SDS011;4647;48.072;11.616;2024-02-23T03:31:45;0.53;;;0.53;;
9224;SDS011;4647;48.072;11.616;2024-02-23T03:34:13;0.37;;;0.37;;
9224;SDS011;4647;48.072;11.616;2024-02-23T03:36:42;1.17;;;0.57;;
9224;SDS011;4647;48.072;11.616;2024-02-23T03:39:10;0.80;;;0.60;;
9224;SDS011;4647;48.072;11.616;2024-02-23T03:41:39;0.70;;;0.53;;
9224;SDS011;4647;48.072;11.616;2024-02-23T03:44:10;0.57;;;0.50;;
9224;SDS011;4647;48.072;11.616;2024-02-23T03:46:38;0.47;;;0.43;;
9224;SDS011;4647;48.072;11.616;2024-02-23T03:49:07;0.60;;;0.50;;
9224;SDS011;4647;48.072;11.616;2024-02-23T03:51:35;0.50;;;0.50;;
9224;SDS011;4647;48.072;11.616;2024-02-23T03:54:04;0.80;;;0.53;;
9224;SDS011;4647;48.072;11.616;2024-02-23T03:56:37;0.63;;;0.50;;
9224;SDS011;4647;48.072;11.616;2024-02-23T03:59:06;0.43;;;0.40;;
9224;SDS011;4647;48.072;11.616;2024-02-23T04:01:38;0.30;;;0.30;;
9224;SDS011;4647;48.072;11.616;2024-02-23T04:04:07;0.70;;;0.50;;
9224;SDS011;4647;48.072;11.616;2024-02-23T04:06:35;0.83;;;0.50;;
9224;SDS011;4647;48.072;11.616;2024-02-23T04:09:04;0.43;;;0.43;;
9224;SDS011;4647;48.072;11.616;2024-02-23T04:11:33;1.40;;;0.67;;
9224;SDS011;4647;48.072;11.616;2024-02-23T04:14:02;0.80;;;0.60;;
9224;SDS011;4647;48.072;11.616;2024-02-23T04:16:31;1.80;;;0.47;;
9224;SDS011;4647;48.072;11.616;2024-02-23T04:19:02;0.67;;;0.40;;
9224;SDS011;4647;48.072;11.616;2024-02-23T04:21:31;0.40;;;0.40;;
9224;SDS011;4647;48.072;11.616;2024-02-23T04:23:59;0.50;;;0.40;;
9224;SDS011;4647;48.072;11.616;2024-02-23T04:26:27;0.40;;;0.40;;
9224;SDS011;4647;48.072;11.616;2024-02-23T04:28:56;0.87;;;0.50;;
9224;SDS011;4647;48.072;11.616;2024-02-23T04:31:24;0.30;;;0.30;;
9224;SDS011;4647;48.072;11.616;2024-02-23T04:33:52;0.53;;;0.50;;
9224;SDS011;4647;48.072;11.616;2024-02-23T04:36:23;0.60;;;0.40;;
9224;SDS011;4647;48.072;11.616;2024-02-23T04:38:52;0.50;;;0.50;;
9224;SDS011;4647;48.072;11.616;2024-02-23T04:41:20;0.53;;;0.53;;
9224;SDS011;4647;48.072;11.616;2024-02-23T04:43:49;0.50;;;0.40;;
9224;SDS011;4647;48.072;11.616;2024-02-23T04:46:15;0.80;;;0.60;;
9224;SDS011;4647;48.072;11.616;2024-02-23T04:48:44;0.60;;;0.57;;
9224;SDS011;4647;48.072;11.616;2024-02-23T04:51:12;0.97;;;0.57;;
9224;SDS011;4647;48.072;11.616;2024-02-23T04:53:43;1.17;;;0.50;;
9224;SDS011;4647;48.072;11.616;2024-02-23T04:56:12;0.93;;;0.50;;
9224;SDS011;4647;48.072;11.616;2024-02-23T04:58:40;0.50;;;0.50;;
9224;SDS011;4647;48.072;11.616;2024-02-23T05:01:09;2.00;;;0.40;;
9224;SDS011;4647;48.072;11.616;2024-02-23T05:03:37;0.50;;;0.50;;
9224;SDS011;4647;48.072;11.616;2024-02-23T05:06:06;0.50;;;0.50;;
9224;SDS011;4647;48.072;11.616;2024-02-23T05:08:34;0.70;;;0.60;;
9224;SDS011;4647;48.072;11.616;2024-02-23T05:11:05;1.47;;;0.80;;
9224;SDS011;4647;48.072;11.616;2024-02-23T05:13:33;1.03;;;0.70;;
9224;SDS011;4647;48.072;11.616;2024-02-23T05:16:04;0.70;;;0.60;;
9224;SDS011;4647;48.072;11.616;2024-02-23T05:18:33;0.67;;;0.53;;
9224;SDS011;4647;48.072;11.616;2024-02-23T05:21:02;0.53;;;0.53;;
9224;SDS011;4647;48.072;11.616;2024-02-23T05:23:30;1.03;;;0.70;;
9224;SDS011;4647;48.072;11.616;2024-02-23T05:25:59;1.53;;;0.70;;
9224;SDS011;4647;48.072;11.616;2024-02-23T05:28:30;1.77;;;0.63;;
9224;SDS011;4647;48.072;11.616;2024-02-23T05:30:58;0.70;;;0.70;;
9224;SDS011;4647;48.072;11.616;2024-02-23T05:33:28;2.50;;;0.70;;
9224;SDS011;4647;48.072;11.616;2024-02-23T05:35:54;0.90;;;0.60;;
9224;SDS011;4647;48.072;11.616;2024-02-23T05:38:23;1.53;;;0.87;;
9224;SDS011;4647;48.072;11.616;2024-02-23T05:40:51;0.77;;;0.40;;
9224;SDS011;4647;48.072;11.616;2024-02-23T05:43:19;0.60;;;0.60;;
9224;SDS011;4647;48.072;11.616;2024-02-23T05:45:50;0.47;;;0.43;;
9224;SDS011;4647;48.072;11.616;2024-02-23T05:48:22;0.60;;;0.60;;
9224;SDS011;4647;48.072;11.616;2024-02-23T05:50:50;0.90;;;0.70;;
9224;SDS011;4647;48.072;11.616;2024-02-23T05:53:19;1.20;;;0.70;;
9224;SDS011;4647;48.072;11.616;2024-02-23T05:55:47;0.40;;;0.40;;
9224;SDS011;4647;48.072;11.616;2024-02-23T05:58:15;0.87;;;0.57;;
9224;SDS011;4647;48.072;11.616;2024-02-23T06:00:44;0.77;;;0.60;;
9224;SDS011;4647;48.072;11.616;2024-02-23T06:03:15;1.17;;;0.77;;
9224;SDS011;4647;48.072;11.616;2024-02-23T06:05:43;0.67;;;0.60;;
9224;SDS011;4647;48.072;11.616;2024-02-23T06:08:11;1.67;;;0.77;;
9224;SDS011;4647;48.072;11.616;2024-02-23T06:10:40;0.90;;;0.70;;
9224;SDS011;4647;48.072;11.616;2024-02-23T06:13:08;0.80;;;0.80;;
9224;SDS011;4647;48.072;11.616;2024-02-23T06:15:37;3.50;;;1.63;;
9224;SDS011;4647;48.072;11.616;2024-02-23T06:18:05;1.77;;;1.20;;
9224;SDS011;4647;48.072;11.616;2024-02-23T06:20:36;1.27;;;0.57;;
9224;SDS011;4647;48.072;11.616;2024-02-23T06:23:05;2.00;;;0.80;;
9224;SDS011;4647;48.072;11.616;2024-02-23T06:25:33;1.20;;;0.90;;
9224;SDS011;4647;48.072;11.616;2024-02-23T06:28:02;1.30;;;0.77;;
9224;SDS011;4647;48.072;11.616;2024-02-23T06:30:31;2.43;;;0.97;;
9224;SDS011;4647;48.072;11.616;2024-02-23T06:33:00;1.63;;;0.87;;
9224;SDS011;4647;48.072;11.616;2024-02-23T06:35:29;2.30;;;0.70;;
9224;SDS011;4647;48.072;11.616;2024-02-23T06:38:00;1.20;;;1.00;;
9224;SDS011;4647;48.072;11.616;2024-02-23T06:40:28;2.10;;;0.77;;
9224;SDS011;4647;48.072;11.616;2024-02-23T06:42:57;1.60;;;0.90;;
9224;SDS011;4647;48.072;11.616;2024-02-23T06:45:25;0.93;;;0.67;;
9224;SDS011;4647;48.072;11.616;2024-02-23T06:47:53;1.43;;;0.70;;
9224;SDS011;4647;48.072;11.616;2024-02-23T06:50:22;1.40;;;0.80;;
9224;SDS011;4647;48.072;11.616;2024-02-23T06:52:51;2.33;;;0.70;;
9224;SDS011;4647;48.072;11.616;2024-02-23T06:55:22;1.43;;;0.80;;
9224;SDS011;4647;48.072;11.616;2024-02-23T06:57:51;1.40;;;0.90;;
9224;SDS011;4647;48.072;11.616;2024-02-23T07:00:20;2.43;;;0.90;;
9224;SDS011;4647;48.072;11.616;2024-02-23T07:02:48;1.70;;;0.90;;
9224;SDS011;4647;48.072;11.616;2024-02-23T07:05:17;3.40;;;0.80;;
9224;SDS011;4647;48.072;11.616;2024-02-23T07:07:46;2.50;;;1.00;;
9224;SDS011;4647;48.072;11.616;2024-02-23T07:10:14;2.23;;;1.13;;
9224;SDS011;4647;48.072;11.616;2024-02-23T07:12:45;2.17;;;1.10;;
9224;SDS011;4647;48.072;11.616;2024-02-23T07:15:14;2.87;;;1.00;;
9224;SDS011;4647;48.072;11.616;2024-02-23T07:17:42;1.50;;;1.10;;
9224;SDS011;4647;48.072;11.616;2024-02-23T07:20:12;1.80;;;0.90;;
9224;SDS011;4647;48.072;11.616;2024-02-23T07:22:43;1.87;;;0.87;;
9224;SDS011;4647;48.072;11.616;2024-02-23T07:25:15;2.13;;;1.10;;
9224;SDS011;4647;48.072;11.616;2024-02-23T07:27:48;1.83;;;0.90;;
9224;SDS011;4647;48.072;11.616;2024-02-23T07:30:17;2.17;;;0.83;;
9224;SDS011;4647;48.072;11.616;2024-02-23T07:32:45;2.73;;;1.53;;
9224;SDS011;4647;48.072;11.616;2024-02-23T07:35:14;2.07;;;1.20;;
9224;SDS011;4647;48.072;11.616;2024-02-23T07:37:42;1.07;;;0.90;;
9224;SDS011;4647;48.072;11.616;2024-02-23T07:40:11;4.20;;;2.80;;
9224;SDS011;4647;48.072;11.616;2024-02-23T07:42:40;3.40;;;1.30;;
9224;SDS011;4647;48.072;11.616;2024-02-23T07:45:11;2.40;;;1.23;;
9224;SDS011;4647;48.072;11.616;2024-02-23T07:47:39;3.07;;;1.30;;
9224;SDS011;4647;48.072;11.616;2024-02-23T07:50:08;3.83;;;1.20;;
9224;SDS011;4647;48.072;11.616;2024-02-23T07:52:37;2.37;;;1.07;;
9224;SDS011;4647;48.072;11.616;2024-02-23T07:55:06;4.07;;;1.03;;
9224;SDS011;4647;48.072;11.616;2024-02-23T07:57:35;3.17;;;1.30;;
9224;SDS011;4647;48.072;11.616;2024-02-23T08:00:05;2.07;;;1.30;;
9224;SDS011;4647;48.072;11.616;2024-02-23T08:02:37;8.50;;;3.63;;
9224;SDS011;4647;48.072;11.616;2024-02-23T08:05:06;6.23;;;2.47;;
9224;SDS011;4647;48.072;11.616;2024-02-23T08:07:35;4.63;;;2.43;;
9224;SDS011;4647;48.072;11.616;2024-02-23T08:10:04;4.77;;;1.70;;
9224;SDS011;4647;48.072;11.616;2024-02-23T08:12:34;1.30;;;0.83;;
9224;SDS011;4647;48.072;11.616;2024-02-23T08:15:03;2.43;;;1.10;;
9224;SDS011;4647;48.072;11.616;2024-02-23T08:17:32;2.37;;;1.23;;
9224;SDS011;4647;48.072;11.616;2024-02-23T08:20:03;3.47;;;1.50;;
9224;SDS011;4647;48.072;11.616;2024-02-23T08:22:33;3.87;;;1.30;;
9224;SDS011;4647;48.072;11.616;2024-02-23T08:25:01;4.80;;;1.30;;
9224;SDS011;4647;48.072;11.616;2024-02-23T08:27:30;3.23;;;1.10;;
9224;SDS011;4647;48.072;11.616;2024-02-23T08:29:58;1.97;;;1.10;;
9224;SDS011;4647;48.072;11.616;2024-02-23T08:32:27;2.20;;;1.10;;
9224;SDS011;4647;48.072;11.616;2024-02-23T08:34:55;1.60;;;1.30;;
9224;SDS011;4647;48.072;11.616;2024-02-23T08:37:27;3.63;;;1.30;;
9224;SDS011;4647;48.072;11.616;2024-02-23T08:39:59;3.20;;;1.20;;
9224;SDS011;4647;48.072;11.616;2024-02-23T08:42:28;3.77;;;1.30;;
9224;SDS011;4647;48.072;11.616;2024-02-23T08:44:56;1.30;;;1.00;;
9224;SDS011;4647;48.072;11.616;2024-02-23T08:47:25;1.23;;;0.83;;
9224;SDS011;4647;48.072;11.616;2024-02-23T08:49:57;2.67;;;1.10;;
9224;SDS011;4647;48.072;11.616;2024-02-23T08:52:28;3.20;;;1.23;;
9224;SDS011;4647;48.072;11.616;2024-02-23T08:54:56;2.23;;;1.00;;
9224;SDS011;4647;48.072;11.616;2024-02-23T08:57:25;4.43;;;1.23;;
9224;SDS011;4647;48.072;11.616;2024-02-23T08:59:53;4.57;;;1.30;;
9224;SDS011;4647;48.072;11.616;2024-02-23T09:02:23;4.13;;;1.30;;
9224;SDS011;4647;48.072;11.616;2024-02-23T09:04:51;3.80;;;1.30;;
9224;SDS011;4647;48.072;11.616;2024-02-23T09:07:20;1.10;;;0.83;;
9224;SDS011;4647;48.072;11.616;2024-02-23T09:09:51;3.53;;;1.13;;
9224;SDS011;4647;48.072;11.616;2024-02-23T09:12:20;2.53;;;1.10;;
9224;SDS011;4647;48.072;11.616;2024-02-23T09:14:48;4.00;;;1.17;;
9224;SDS011;4647;48.072;11.616;2024-02-23T09:17:16;1.80;;;1.00;;
9224;SDS011;4647;48.072;11.616;2024-02-23T09:19:45;3.70;;;1.20;;
9224;SDS011;4647;48.072;11.616;2024-02-23T09:22:14;4.70;;;0.90;;
9224;SDS011;4647;48.072;11.616;2024-02-23T09:24:43;3.60;;;1.13;;
9224;SDS011;4647;48.072;11.616;2024-02-23T09:27:14;3.27;;;1.07;;
9224;SDS011;4647;48.072;11.616;2024-02-23T09:29:43;2.10;;;0.80;;
9224;SDS011;4647;48.072;11.616;2024-02-23T09:32:11;2.47;;;1.10;;
9224;SDS011;4647;48.072;11.616;2024-02-23T09:34:39;3.67;;;1.00;;
9224;SDS011;4647;48.072;11.616;2024-02-23T09:37:08;3.90;;;1.00;;
9224;SDS011;4647;48.072;11.616;2024-02-23T09:39:36;1.37;;;1.00;;
9224;SDS011;4647;48.072;11.616;2024-02-23T09:42:05;1.53;;;1.17;;
9224;SDS011;4647;48.072;11.616;2024-02-23T09:44:40;3.27;;;1.10;;
9224;SDS011;4647;48.072;11.616;2024-02-23T09:47:10;1.80;;;1.10;;
9224;SDS011;4647;48.072;11.616;2024-02-23T09:49:39;2.17;;;1.13;;
9224;SDS011;4647;48.072;11.616;2024-02-23T09:52:08;3.57;;;1.27;;
9224;SDS011;4647;48.072;11.616;2024-02-23T09:54:37;2.73;;;1.07;;
9224;SDS011;4647;48.072;11.616;2024-02-23T09:57:06;1.43;;;0.80;;
9224;SDS011;4647;48.072;11.616;2024-02-23T09:59:36;2.40;;;1.10;;
9224;SDS011;4647;48.072;11.616;2024-02-23T10:02:08;1.47;;;1.10;;
9224;SDS011;4647;48.072;11.616;2024-02-23T10:04:37;2.33;;;0.80;;
9224;SDS011;4647;48.072;11.616;2024-02-23T10:07:08;2.60;;;0.97;;
9224;SDS011;4647;48.072;11.616;2024-02-23T10:09:36;1.53;;;0.90;;
9224;SDS011;4647;48.072;11.616;2024-02-23T10:12:05;2.33;;;0.90;;
9224;SDS011;4647;48.072;11.616;2024-02-23T10:14:35;2.47;;;1.27;;
9224;SDS011;4647;48.072;11.616;2024-02-23T10:17:03;1.33;;;1.00;;
9224;SDS011;4647;48.072;11.616;2024-02-23T10:19:36;2.57;;;0.90;;
9224;SDS011;4647;48.072;11.616;2024-02-23T10:22:05;2.20;;;1.00;;
9224;SDS011;4647;48.072;11.616;2024-02-23T10:24:33;2.47;;;1.00;;
9224;SDS011;4647;48.072;11.616;2024-02-23T10:27:02;0.90;;;0.80;;
9224;SDS011;4647;48.072;11.616;2024-02-23T10:29:31;4.63;;;1.00;;
9224;SDS011;4647;48.072;11.616;2024-02-23T10:31:59;1.60;;;0.90;;
9224;SDS011;4647;48.072;11.616;2024-02-23T10:34:31;1.57;;;1.00;;
9224;SDS011;4647;48.072;11.616;2024-02-23T10:37:05;2.20;;;1.23;;
9224;SDS011;4647;48.072;11.616;2024-02-23T10:39:34;2.37;;;0.93;;
9224;SDS011;4647;48.072;11.616;2024-02-23T10:42:05;4.43;;;1.20;;
9224;SDS011;4647;48.072;11.616;2024-02-23T10:44:37;4.53;;;0.93;;
9224;SDS011;4647;48.072;11.616;2024-02-23T10:47:08;2.10;;;1.20;;
9224;SDS011;4647;48.072;11.616;2024-02-23T10:49:39;2.73;;;1.10;;
9224;SDS011;4647;48.072;11.616;2024-02-23T10:52:10;1.70;;;1.13;;
9224;SDS011;4647;48.072;11.616;2024-02-23T10:54:40;2.67;;;1.00;;
9224;SDS011;4647;48.072;11.616;2024-02-23T10:57:09;2.17;;;1.00;;
9224;SDS011;4647;48.072;11.616;2024-02-23T10:59:38;2.33;;;0.82;;
9224;SDS011;4647;48.072;11.616;2024-02-23T11:02:07;2.83;;;1.00;;
9224;SDS011;4647;48.072;11.616;2024-02-23T11:04:37;1.23;;;0.90;;
9224;SDS011;4647;48.072;11.616;2024-02-23T11:07:12;1.70;;;0.87;;
9224;SDS011;4647;48.072;11.616;2024-02-23T11:09:41;1.73;;;0.90;;
9224;SDS011;4647;48.072;11.616;2024-02-23T11:12:10;1.10;;;0.80;;
9224;SDS011;4647;48.072;11.616;2024-02-23T11:14:38;2.97;;;0.87;;
9224;SDS011;4647;48.072;11.616;2024-02-23T11:17:07;1.50;;;1.00;;
9224;SDS011;4647;48.072;11.616;2024-02-23T11:19:48;2.10;;;0.90;;
9224;SDS011;4647;48.072;11.616;2024-02-23T11:22:23;2.33;;;1.10;;
9224;SDS011;4647;48.072;11.616;2024-02-23T11:24:54;2.50;;;0.90;;
9224;SDS011;4647;48.072;11.616;2024-02-23T11:27:30;2.27;;;1.20;;
9224;SDS011;4647;48.072;11.616;2024-02-23T11:29:59;2.40;;;0.80;;
9224;SDS011;4647;48.072;11.616;2024-02-23T11:32:37;1.70;;;1.27;;
9224;SDS011;4647;48.072;11.616;2024-02-23T11:35:10;1.13;;;0.90;;
9224;SDS011;4647;48.072;11.616;2024-02-23T11:37:46;2.47;;;1.00;;
9224;SDS011;4647;48.072;11.616;2024-02-23T11:40:17;2.00;;;1.17;;
9224;SDS011;4647;48.072;11.616;2024-02-23T11:42:45;1.20;;;1.10;;
9224;SDS011;4647;48.072;11.616;2024-02-23T11:45:15;1.10;;;0.80;;
9224;SDS011;4647;48.072;11.616;2024-02-23T11:47:44;3.30;;;1.03;;
9224;SDS011;4647;48.072;11.616;2024-02-23T11:50:15;1.20;;;0.80;;
9224;SDS011;4647;48.072;11.616;2024-02-23T11:52:45;1.37;;;0.80;;
9224;SDS011;4647;48.072;11.616;2024-02-23T11:55:17;2.60;;;1.33;;
9224;SDS011;4647;48.072;11.616;2024-02-23T11:57:47;2.43;;;0.90;;
9224;SDS011;4647;48.072;11.616;2024-02-23T12:00:16;0.80;;;0.70;;
9224;SDS011;4647;48.072;11.616;2024-02-23T12:02:45;4.17;;;0.80;;
9224;SDS011;4647;48.072;11.616;2024-02-23T12:05:18;2.00;;;1.10;;
9224;SDS011;4647;48.072;11.616;2024-02-23T12:07:46;1.33;;;0.80;;
9224;SDS011;4647;48.072;11.616;2024-02-23T12:10:15;1.47;;;0.90;;
9224;SDS011;4647;48.072;11.616;2024-02-23T12:12:43;5.23;;;0.70;;
9224;SDS011;4647;48.072;11.616;2024-02-23T12:15:12;1.50;;;0.73;;
9224;SDS011;4647;48.072;11.616;2024-02-23T12:17:46;3.83;;;0.80;;
9224;SDS011;4647;48.072;11.616;2024-02-23T12:20:15;1.83;;;0.90;;
9224;SDS011;4647;48.072;11.616;2024-02-23T12:22:46;0.90;;;0.70;;
9224;SDS011;4647;48.072;11.616;2024-02-23T12:25:16;0.80;;;0.70;;
9224;SDS011;4647;48.072;11.616;2024-02-23T12:27:45;1.60;;;0.77;;
9224;SDS011;4647;48.072;11.616;2024-02-23T12:30:14;1.57;;;0.90;;
9224;SDS011;4647;48.072;11.616;2024-02-23T12:32:42;2.07;;;0.90;;
9224;SDS011;4647;48.072;11.616;2024-02-23T12:35:11;1.80;;;0.80;;
9224;SDS011;4647;48.072;11.616;2024-02-23T12:37:42;2.20;;;1.00;;
9224;SDS011;4647;48.072;11.616;2024-02-23T12:40:11;1.60;;;0.90;;
9224;SDS011;4647;48.072;11.616;2024-02-23T12:42:40;1.30;;;0.77;;
9224;SDS011;4647;48.072;11.616;2024-02-23T12:45:09;2.00;;;0.90;;
9224;SDS011;4647;48.072;11.616;2024-02-23T12:47:38;2.13;;;0.97;;
9224;SDS011;4647;48.072;11.616;2024-02-23T12:50:07;0.80;;;0.70;;
9224;SDS011;4647;48.072;11.616;2024-02-23T12:52:36;2.67;;;0.90;;
9224;SDS011;4647;48.072;11.616;2024-02-23T12:55:07;0.97;;;0.80;;
9224;SDS011;4647;48.072;11.616;2024-02-23T12:57:36;1.27;;;0.90;;
9224;SDS011;4647;48.072;11.616;2024-02-23T13:00:05;1.70;;;1.03;;
9224;SDS011;4647;48.072;11.616;2024-02-23T13:02:34;2.20;;;1.17;;
9224;SDS011;4647;48.072;11.616;2024-02-23T13:05:03;2.03;;;1.00;;
9224;SDS011;4647;48.072;11.616;2024-02-23T13:07:32;3.13;;;0.83;;
9224;SDS011;4647;48.072;11.616;2024-02-23T13:10:00;1.37;;;0.80;;
9224;SDS011;4647;48.072;11.616;2024-02-23T13:12:32;1.13;;;0.80;;
9224;SDS011;4647;48.072;11.616;2024-02-23T13:15:00;2.43;;;0.80;;
9224;SDS011;4647;48.072;11.616;2024-02-23T13:17:29;0.60;;;0.60;;
9224;SDS011;4647;48.072;11.616;2024-02-23T13:19:57;1.00;;;0.60;;
9224;SDS011;4647;48.072;11.616;2024-02-23T13:22:25;1.50;;;0.80;;
9224;SDS011;4647;48.072;11.616;2024-02-23T13:24:54;2.13;;;0.90;;
9224;SDS011;4647;48.072;11.616;2024-02-23T13:27:23;0.90;;;0.70;;
9224;SDS011;4647;48.072;11.616;2024-02-23T13:29:54;1.83;;;0.77;;
9224;SDS011;4647;48.072;11.616;2024-02-23T13:32:23;1.20;;;1.10;;
9224;SDS011;4647;48.072;11.616;2024-02-23T13:34:51;2.43;;;0.90;;
9224;SDS011;4647;48.072;11.616;2024-02-23T13:37:20;2.60;;;1.50;;
9224;SDS011;4647;48.072;11.616;2024-02-23T13:39:48;3.33;;;2.13;;
9224;SDS011;4647;48.072;11.616;2024-02-23T13:42:16;1.10;;;0.80;;
9224;SDS011;4647;48.072;11.616;2024-02-23T13:44:45;1.57;;;1.00;;
9224;SDS011;4647;48.072;11.616;2024-02-23T13:47:16;0.90;;;0.80;;
9224;SDS011;4647;48.072;11.616;2024-02-23T13:49:45;2.00;;;0.83;;
9224;SDS011;4647;48.072;11.616;2024-02-23T13:52:13;1.67;;;0.70;;
9224;SDS011;4647;48.072;11.616;2024-02-23T13:54:42;1.53;;;0.87;;
9224;SDS011;4647;48.072;11.616;2024-02-23T13:57:10;1.67;;;0.90;;
9224;SDS011;4647;48.072;11.616;2024-02-23T13:59:39;3.70;;;0.87;;
9224;SDS011;4647;48.072;11.616;2024-02-23T14:02:07;2.07;;;0.80;;
9224;SDS011;4647;48.072;11.616;2024-02-23T14:04:38;0.73;;;0.70;;
9224;SDS011;4647;48.072;11.616;2024-02-23T14:07:06;1.20;;;0.73;;
9224;SDS011;4647;48.072;11.616;2024-02-23T14:09:35;1.83;;;0.60;;
9224;SDS011;4647;48.072;11.616;2024-02-23T14:12:04;1.10;;;0.80;;
9224;SDS011;4647;48.072;11.616;2024-02-23T14:14:32;2.77;;;0.60;;
9224;SDS011;4647;48.072;11.616;2024-02-23T14:17:01;0.63;;;0.63;;
9224;SDS011;4647;48.072;11.616;2024-02-23T14:19:29;1.47;;;0.83;;
9224;SDS011;4647;48.072;11.616;2024-02-23T14:22:00;2.57;;;1.50;;
9224;SDS011;4647;48.072;11.616;2024-02-23T14:24:28;1.43;;;0.83;;
9224;SDS011;4647;48.072;11.616;2024-02-23T14:26:57;1.00;;;0.90;;
9224;SDS011;4647;48.072;11.616;2024-02-23T14:29:25;1.00;;;0.90;;
9224;SDS011;4647;48.072;11.616;2024-02-23T14:31:52;1.80;;;1.10;;
9224;SDS011;4647;48.072;11.616;2024-02-23T14:34:20;1.07;;;0.90;;
9224;SDS011;4647;48.072;11.616;2024-02-23T14:36:49;0.80;;;0.70;;
9224;SDS011;4647;48.072;11.616;2024-02-23T14:39:20;1.57;;;0.80;;
9224;SDS011;4647;48.072;11.616;2024-02-23T14:41:48;1.57;;;0.90;;
9224;SDS011;4647;48.072;11.616;2024-02-23T14:44:16;2.17;;;0.90;;
9224;SDS011;4647;48.072;11.616;2024-02-23T14:46:45;1.00;;;0.90;;
9224;SDS011;4647;48.072;11.616;2024-02-23T14:49:13;0.70;;;0.70;;
9224;SDS011;4647;48.072;11.616;2024-02-23T14:51:41;1.23;;;0.83;;
9224;SDS011;4647;48.072;11.616;2024-02-23T14:54:11;1.93;;;1.00;;
9224;SDS011;4647;48.072;11.616;2024-02-23T14:56:42;1.60;;;1.00;;
9224;SDS011;4647;48.072;11.616;2024-02-23T14:59:10;1.20;;;1.00;;
9224;SDS011;4647;48.072;11.616;2024-02-23T15:01:39;1.60;;;1.00;;
9224;SDS011;4647;48.072;11.616;2024-02-23T15:04:08;3.47;;;1.00;;
9224;SDS011;4647;48.072;11.616;2024-02-23T15:06:37;1.27;;;1.17;;
9224;SDS011;4647;48.072;11.616;2024-02-23T15:09:05;2.20;;;1.03;;
9224;SDS011;4647;48.072;11.616;2024-02-23T15:11:34;1.00;;;0.90;;